sensor_id;sensor_type;location;lat;lon;timestamp;temperature;humidity
20858;DHT22;10589;53.636;10.012;2022-10-18T03:47:08;13.50;99.90
20858;DHT22;10589;53.636;10.012;2022-10-18T03:49:33;13.50;99.90
20858;DHT22;10589;53.636;10.012;2022-10-18T03:51:59;13.30;99.90
20858;DHT22;10589;53.636;10.012;2022-10-18T03:54:24;13.30;99.90
20858;DHT22;10589;53.636;10.012;2022-10-18T03:56:50;13.20;99.90
20858;DHT22;10589;53.636;10.012;2022-10-18T03:59:16;13.10;99.90
20858;DHT22;10589;53.636;10.012;2022-10-18T04:01:42;13.00;99.90
20858;DHT22;10589;53.636;10.012;2022-10-18T04:04:07;12.80;99.90
20858;DHT22;10589;53.636;10.012;2022-10-18T04:06:33;12.70;99.90
20858;DHT22;10589;53.636;10.012;2022-10-18T04:08:58;12.70;99.90
20858;DHT22;10589;53.636;10.012;2022-10-18T04:11:24;12.60;99.90
20858;DHT22;10589;53.636;10.012;2022-10-18T04:13:50;12.50;99.90
20858;DHT22;10589;53.636;10.012;2022-10-18T04:16:15;12.50;99.90
20858;DHT22;10589;53.636;10.012;2022-10-18T04:18:41;12.40;99.90
20858;DHT22;10589;53.636;10.012;2022-10-18T04:21:06;12.40;99.90
20858;DHT22;10589;53.636;10.012;2022-10-18T04:23:32;12.30;99.90
20858;DHT22;10589;53.636;10.012;2022-10-18T04:25:57;12.40;99.90
20858;DHT22;10589;53.636;10.012;2022-10-18T04:28:23;12.30;99.90
20858;DHT22;10589;53.636;10.012;2022-10-18T04:30:52;12.30;99.90
20858;DHT22;10589;53.636;10.012;2022-10-18T04:33:18;12.30;99.90
20858;DHT22;10589;53.636;10.012;2022-10-18T04:35:43;12.30;99.90
20858;DHT22;10589;53.636;10.012;2022-10-18T04:38:09;12.30;99.90
20858;DHT22;10589;53.636;10.012;2022-10-18T04:40:35;12.30;99.90
20858;DHT22;10589;53.636;10.012;2022-10-18T04:43:01;12.30;99.90
20858;DHT22;10589;53.636;10.012;2022-10-18T04:45:27;12.30;99.90
20858;DHT22;10589;53.636;10.012;2022-10-18T04:47:52;12.30;99.90
20858;DHT22;10589;53.636;10.012;2022-10-18T04:50:18;12.30;99.90
20858;DHT22;10589;53.636;10.012;2022-10-18T04:52:43;12.40;99.90
20858;DHT22;10589;53.636;10.012;2022-10-18T04:55:09;12.40;99.90
20858;DHT22;10589;53.636;10.012;2022-10-18T04:57:34;12.50;99.90
20858;DHT22;10589;53.636;10.012;2022-10-18T05:00:00;12.50;99.90
20858;DHT22;10589;53.636;10.012;2022-10-18T05:02:26;12.50;99.90
20858;DHT22;10589;53.636;10.012;2022-10-18T05:04:51;12.60;99.90
20858;DHT22;10589;53.636;10.012;2022-10-18T05:07:17;12.60;99.90
20858;DHT22;10589;53.636;10.012;2022-10-18T05:09:43;12.60;99.90
20858;DHT22;10589;53.636;10.012;2022-10-18T05:12:08;12.50;99.90
20858;DHT22;10589;53.636;10.012;2022-10-18T05:14:34;12.60;99.90
20858;DHT22;10589;53.636;10.012;2022-10-18T05:16:59;12.80;99.90
20858;DHT22;10589;53.636;10.012;2022-10-18T05:19:25;12.80;99.90
20858;DHT22;10589;53.636;10.012;2022-10-18T05:21:51;12.90;99.90
20858;DHT22;10589;53.636;10.012;2022-10-18T05:24:16;13.00;99.90
20858;DHT22;10589;53.636;10.012;2022-10-18T05:26:42;13.10;99.90
20858;DHT22;10589;53.636;10.012;2022-10-18T05:29:07;13.10;99.90
20858;DHT22;10589;53.636;10.012;2022-10-18T05:31:33;13.20;99.90
20858;DHT22;10589;53.636;10.012;2022-10-18T05:33:59;13.20;99.90
20858;DHT22;10589;53.636;10.012;2022-10-18T05:36:26;13.20;99.90
20858;DHT22;10589;53.636;10.012;2022-10-18T05:38:51;13.10;99.90
20858;DHT22;10589;53.636;10.012;2022-10-18T05:41:18;13.10;99.90
20858;DHT22;10589;53.636;10.012;2022-10-18T05:43:44;13.20;99.90
20858;DHT22;10589;53.636;10.012;2022-10-18T05:46:10;13.20;99.90
20858;DHT22;10589;53.636;10.012;2022-10-18T05:48:36;13.20;99.90
20858;DHT22;10589;53.636;10.012;2022-10-18T05:51:02;13.20;99.90
20858;DHT22;10589;53.636;10.012;2022-10-18T05:53:28;13.30;99.90
20858;DHT22;10589;53.636;10.012;2022-10-18T05:55:54;13.20;99.90
20858;DHT22;10589;53.636;10.012;2022-10-18T05:58:19;13.20;99.90
20858;DHT22;10589;53.636;10.012;2022-10-18T06:00:45;13.10;99.90
20858;DHT22;10589;53.636;10.012;2022-10-18T06:03:11;13.10;99.90
20858;DHT22;10589;53.636;10.012;2022-10-18T06:05:42;13.10;99.90
20858;DHT22;10589;53.636;10.012;2022-10-18T06:08:08;13.20;99.90
20858;DHT22;10589;53.636;10.012;2022-10-18T06:10:37;13.20;99.90
20858;DHT22;10589;53.636;10.012;2022-10-18T06:13:03;13.20;99.90
20858;DHT22;10589;53.636;10.012;2022-10-18T06:15:29;13.10;99.90
20858;DHT22;10589;53.636;10.012;2022-10-18T06:17:54;13.10;99.90
20858;DHT22;10589;53.636;10.012;2022-10-18T06:20:20;13.20;99.90
20858;DHT22;10589;53.636;10.012;2022-10-18T06:22:45;13.10;99.90
20858;DHT22;10589;53.636;10.012;2022-10-18T06:25:11;13.20;99.90
20858;DHT22;10589;53.636;10.012;2022-10-18T06:27:37;13.20;99.90
20858;DHT22;10589;53.636;10.012;2022-10-18T06:30:03;13.10;99.90
20858;DHT22;10589;53.636;10.012;2022-10-18T06:32:30;13.20;99.90
20858;DHT22;10589;53.636;10.012;2022-10-18T06:34:56;13.20;99.90
20858;DHT22;10589;53.636;10.012;2022-10-18T06:37:21;13.20;99.90
20858;DHT22;10589;53.636;10.012;2022-10-18T06:39:48;13.20;99.90
20858;DHT22;10589;53.636;10.012;2022-10-18T06:42:13;13.30;99.90
20858;DHT22;10589;53.636;10.012;2022-10-18T06:44:39;13.20;99.90
20858;DHT22;10589;53.636;10.012;2022-10-18T06:47:06;13.20;99.90
20858;DHT22;10589;53.636;10.012;2022-10-18T06:49:32;13.20;99.90
20858;DHT22;10589;53.636;10.012;2022-10-18T06:51:57;13.30;99.90
20858;DHT22;10589;53.636;10.012;2022-10-18T06:54:23;13.30;99.90
20858;DHT22;10589;53.636;10.012;2022-10-18T06:56:48;13.30;99.90
20858;DHT22;10589;53.636;10.012;2022-10-18T06:59:14;13.30;99.90
20858;DHT22;10589;53.636;10.012;2022-10-18T07:01:40;13.40;99.90
20858;DHT22;10589;53.636;10.012;2022-10-18T07:04:05;13.30;99.90
20858;DHT22;10589;53.636;10.012;2022-10-18T07:06:31;13.40;99.90
20858;DHT22;10589;53.636;10.012;2022-10-18T07:08:57;13.40;99.90
20858;DHT22;10589;53.636;10.012;2022-10-18T07:11:25;13.40;99.90
20858;DHT22;10589;53.636;10.012;2022-10-18T07:13:57;13.50;99.90
20858;DHT22;10589;53.636;10.012;2022-10-18T07:16:25;13.50;99.90
20858;DHT22;10589;53.636;10.012;2022-10-18T07:18:51;13.50;99.90
20858;DHT22;10589;53.636;10.012;2022-10-18T07:21:19;13.40;99.90
20858;DHT22;10589;53.636;10.012;2022-10-18T07:23:45;13.40;99.90
20858;DHT22;10589;53.636;10.012;2022-10-18T07:26:16;13.20;99.90
20858;DHT22;10589;53.636;10.012;2022-10-18T07:28:43;13.30;99.90
20858;DHT22;10589;53.636;10.012;2022-10-18T07:31:10;13.40;99.90
20858;DHT22;10589;53.636;10.012;2022-10-18T07:33:36;13.40;99.90
20858;DHT22;10589;53.636;10.012;2022-10-18T07:36:08;13.50;99.90
20858;DHT22;10589;53.636;10.012;2022-10-18T07:38:34;13.50;99.90
20858;DHT22;10589;53.636;10.012;2022-10-18T07:41:02;13.50;99.90
20858;DHT22;10589;53.636;10.012;2022-10-18T07:43:28;13.60;99.90
20858;DHT22;10589;53.636;10.012;2022-10-18T07:45:55;13.70;99.90
20858;DHT22;10589;53.636;10.012;2022-10-18T07:48:21;13.60;99.90
20858;DHT22;10589;53.636;10.012;2022-10-18T07:50:47;13.70;99.90
20858;DHT22;10589;53.636;10.012;2022-10-18T07:53:12;13.80;99.90
20858;DHT22;10589;53.636;10.012;2022-10-18T07:55:38;13.70;99.90
20858;DHT22;10589;53.636;10.012;2022-10-18T07:58:04;13.70;99.90
20858;DHT22;10589;53.636;10.012;2022-10-18T08:00:33;13.70;99.90
20858;DHT22;10589;53.636;10.012;2022-10-18T08:02:59;13.80;99.90
20858;DHT22;10589;53.636;10.012;2022-10-18T08:05:25;13.80;99.90
20858;DHT22;10589;53.636;10.012;2022-10-18T08:07:52;13.80;99.90
20858;DHT22;10589;53.636;10.012;2022-10-18T08:10:18;13.90;99.90
20858;DHT22;10589;53.636;10.012;2022-10-18T08:12:44;14.00;99.90
20858;DHT22;10589;53.636;10.012;2022-10-18T08:15:10;13.80;99.90
20858;DHT22;10589;53.636;10.012;2022-10-18T08:17:36;13.90;99.90
20858;DHT22;10589;53.636;10.012;2022-10-18T08:20:02;13.80;99.90
20858;DHT22;10589;53.636;10.012;2022-10-18T08:22:28;13.90;99.90
20858;DHT22;10589;53.636;10.012;2022-10-18T08:24:53;13.90;99.90
20858;DHT22;10589;53.636;10.012;2022-10-18T08:27:19;13.90;99.90
20858;DHT22;10589;53.636;10.012;2022-10-18T08:29:45;13.90;99.90
20858;DHT22;10589;53.636;10.012;2022-10-18T08:32:10;14.00;99.90
20858;DHT22;10589;53.636;10.012;2022-10-18T08:34:36;13.90;99.90
20858;DHT22;10589;53.636;10.012;2022-10-18T08:37:02;14.00;99.90
20858;DHT22;10589;53.636;10.012;2022-10-18T08:39:28;14.00;99.90
20858;DHT22;10589;53.636;10.012;2022-10-18T08:42:17;14.10;99.90
20858;DHT22;10589;53.636;10.012;2022-10-18T08:44:47;14.00;99.90
20858;DHT22;10589;53.636;10.012;2022-10-18T08:47:18;14.10;99.90
20858;DHT22;10589;53.636;10.012;2022-10-18T08:57:45;14.00;99.90
20858;DHT22;10589;53.636;10.012;2022-10-18T09:00:20;14.00;99.90
20858;DHT22;10589;53.636;10.012;2022-10-18T09:05:35;13.90;99.90
20858;DHT22;10589;53.636;10.012;2022-10-18T09:25:15;14.00;99.90
20858;DHT22;10589;53.636;10.012;2022-10-18T09:28:01;14.20;99.90
20858;DHT22;10589;53.636;10.012;2022-10-18T09:33:35;14.50;99.90
20858;DHT22;10589;53.636;10.012;2022-10-18T09:36:07;15.00;99.90
20858;DHT22;10589;53.636;10.012;2022-10-18T09:38:44;15.30;99.90
20858;DHT22;10589;53.636;10.012;2022-10-18T09:41:24;15.60;99.90
20858;DHT22;10589;53.636;10.012;2022-10-18T09:46:41;15.90;99.90
20858;DHT22;10589;53.636;10.012;2022-10-18T09:49:30;16.00;99.90
20858;DHT22;10589;53.636;10.012;2022-10-18T09:51:59;16.10;99.90
20858;DHT22;10589;53.636;10.012;2022-10-18T09:54:34;15.80;99.90
20858;DHT22;10589;53.636;10.012;2022-10-18T09:59:46;15.70;99.90
20858;DHT22;10589;53.636;10.012;2022-10-18T10:02:18;15.70;99.90
20858;DHT22;10589;53.636;10.012;2022-10-18T10:04:46;15.50;99.90
20858;DHT22;10589;53.636;10.012;2022-10-18T10:07:34;15.50;99.90
20858;DHT22;10589;53.636;10.012;2022-10-18T10:10:12;15.40;99.90
20858;DHT22;10589;53.636;10.012;2022-10-18T10:12:40;15.30;99.90
20858;DHT22;10589;53.636;10.012;2022-10-18T10:15:24;15.10;99.90
20858;DHT22;10589;53.636;10.012;2022-10-18T10:18:02;14.90;99.90
20858;DHT22;10589;53.636;10.012;2022-10-18T10:20:43;14.90;99.90
20858;DHT22;10589;53.636;10.012;2022-10-18T10:23:23;14.90;99.90
20858;DHT22;10589;53.636;10.012;2022-10-18T10:26:29;14.90;99.90
20858;DHT22;10589;53.636;10.012;2022-10-18T10:28:55;15.20;99.90
20858;DHT22;10589;53.636;10.012;2022-10-18T10:36:30;15.20;99.90
20858;DHT22;10589;53.636;10.012;2022-10-18T10:39:12;15.10;99.90
20858;DHT22;10589;53.636;10.012;2022-10-18T10:41:53;15.10;99.90
20858;DHT22;10589;53.636;10.012;2022-10-18T10:44:22;14.90;99.90
20858;DHT22;10589;53.636;10.012;2022-10-18T10:46:50;14.90;99.90
20858;DHT22;10589;53.636;10.012;2022-10-18T10:49:24;14.90;99.90
20858;DHT22;10589;53.636;10.012;2022-10-18T10:52:00;14.90;99.90
20858;DHT22;10589;53.636;10.012;2022-10-18T10:54:28;15.00;99.90
20858;DHT22;10589;53.636;10.012;2022-10-18T10:56:57;15.10;99.90
20858;DHT22;10589;53.636;10.012;2022-10-18T10:59:27;15.30;99.90
20858;DHT22;10589;53.636;10.012;2022-10-18T11:04:39;15.80;99.90
20858;DHT22;10589;53.636;10.012;2022-10-18T11:12:44;16.50;99.90
20858;DHT22;10589;53.636;10.012;2022-10-18T11:15:21;16.70;99.90
20858;DHT22;10589;53.636;10.012;2022-10-18T11:18:09;16.80;99.90
20858;DHT22;10589;53.636;10.012;2022-10-18T11:20:51;16.80;99.90
20858;DHT22;10589;53.636;10.012;2022-10-18T11:23:18;16.90;99.90
20858;DHT22;10589;53.636;10.012;2022-10-18T11:36:44;16.40;99.90
20858;DHT22;10589;53.636;10.012;2022-10-18T11:45:01;16.70;99.90
20858;DHT22;10589;53.636;10.012;2022-10-18T11:50:46;16.70;99.90
20858;DHT22;10589;53.636;10.012;2022-10-18T11:55:59;16.80;99.90
20858;DHT22;10589;53.636;10.012;2022-10-18T12:06:42;16.90;99.90
20858;DHT22;10589;53.636;10.012;2022-10-18T12:09:29;17.20;99.90
20858;DHT22;10589;53.636;10.012;2022-10-18T12:12:20;17.30;99.90
20858;DHT22;10589;53.636;10.012;2022-10-18T12:17:38;16.90;99.90
20858;DHT22;10589;53.636;10.012;2022-10-18T12:20:12;16.80;99.90
20858;DHT22;10589;53.636;10.012;2022-10-18T12:25:24;16.60;99.90
20858;DHT22;10589;53.636;10.012;2022-10-18T12:28:05;16.70;99.90
20858;DHT22;10589;53.636;10.012;2022-10-18T12:33:21;17.10;99.90
20858;DHT22;10589;53.636;10.012;2022-10-18T12:38:47;17.40;99.90
20858;DHT22;10589;53.636;10.012;2022-10-18T12:41:25;17.80;99.90
20858;DHT22;10589;53.636;10.012;2022-10-18T12:43:56;18.00;99.90
20858;DHT22;10589;53.636;10.012;2022-10-18T12:46:23;18.50;99.90
20858;DHT22;10589;53.636;10.012;2022-10-18T12:49:02;19.40;99.90
20858;DHT22;10589;53.636;10.012;2022-10-18T12:51:29;20.60;99.90
20858;DHT22;10589;53.636;10.012;2022-10-18T13:09:32;23.90;99.90
20858;DHT22;10589;53.636;10.012;2022-10-18T13:15:02;24.70;99.90
20858;DHT22;10589;53.636;10.012;2022-10-18T13:20:24;23.40;99.90
20858;DHT22;10589;53.636;10.012;2022-10-18T13:23:22;22.90;99.90
20858;DHT22;10589;53.636;10.012;2022-10-18T13:28:58;23.10;99.90
20858;DHT22;10589;53.636;10.012;2022-10-18T13:31:41;22.20;99.90
20858;DHT22;10589;53.636;10.012;2022-10-18T13:37:19;19.90;99.90
20858;DHT22;10589;53.636;10.012;2022-10-18T13:39:48;18.90;99.90
20858;DHT22;10589;53.636;10.012;2022-10-18T13:44:41;17.90;99.90
20858;DHT22;10589;53.636;10.012;2022-10-18T13:47:13;17.60;99.90
20858;DHT22;10589;53.636;10.012;2022-10-18T14:01:50;17.00;99.90
20858;DHT22;10589;53.636;10.012;2022-10-18T14:07:06;16.60;99.90
20858;DHT22;10589;53.636;10.012;2022-10-18T14:09:50;16.70;99.90
20858;DHT22;10589;53.636;10.012;2022-10-18T14:17:54;16.90;99.90
20858;DHT22;10589;53.636;10.012;2022-10-18T14:20:35;16.90;99.90
20858;DHT22;10589;53.636;10.012;2022-10-18T14:23:42;16.80;99.90
20858;DHT22;10589;53.636;10.012;2022-10-18T14:26:10;16.80;99.90
20858;DHT22;10589;53.636;10.012;2022-10-18T14:28:37;16.80;99.90
20858;DHT22;10589;53.636;10.012;2022-10-18T14:31:11;16.50;99.90
20858;DHT22;10589;53.636;10.012;2022-10-18T14:33:38;16.30;99.90
20858;DHT22;10589;53.636;10.012;2022-10-18T14:38:46;16.20;99.90
20858;DHT22;10589;53.636;10.012;2022-10-18T14:41:15;16.30;99.90
20858;DHT22;10589;53.636;10.012;2022-10-18T14:43:42;16.50;99.90
20858;DHT22;10589;53.636;10.012;2022-10-18T14:46:15;16.60;99.90
20858;DHT22;10589;53.636;10.012;2022-10-18T14:48:49;16.50;99.90
20858;DHT22;10589;53.636;10.012;2022-10-18T14:51:15;16.40;99.90
20858;DHT22;10589;53.636;10.012;2022-10-18T14:53:41;16.20;99.90
20858;DHT22;10589;53.636;10.012;2022-10-18T14:56:19;16.10;99.90
20858;DHT22;10589;53.636;10.012;2022-10-18T14:58:45;16.00;99.90
20858;DHT22;10589;53.636;10.012;2022-10-18T15:01:17;16.00;99.90
20858;DHT22;10589;53.636;10.012;2022-10-18T15:03:43;16.00;99.90
20858;DHT22;10589;53.636;10.012;2022-10-18T15:06:16;16.10;99.90
20858;DHT22;10589;53.636;10.012;2022-10-18T15:08:43;16.00;99.90
20858;DHT22;10589;53.636;10.012;2022-10-18T15:11:10;15.90;99.90
20858;DHT22;10589;53.636;10.012;2022-10-18T15:14:02;15.80;99.90
20858;DHT22;10589;53.636;10.012;2022-10-18T15:16:33;15.70;99.90
20858;DHT22;10589;53.636;10.012;2022-10-18T15:19:27;15.60;99.90
20858;DHT22;10589;53.636;10.012;2022-10-18T15:22:02;15.40;99.90
20858;DHT22;10589;53.636;10.012;2022-10-18T15:24:32;15.40;99.90
20858;DHT22;10589;53.636;10.012;2022-10-18T15:29:31;15.20;99.90
20858;DHT22;10589;53.636;10.012;2022-10-18T15:32:29;15.10;99.90
20858;DHT22;10589;53.636;10.012;2022-10-18T15:35:09;15.00;99.90
20858;DHT22;10589;53.636;10.012;2022-10-18T15:37:42;15.00;99.90
20858;DHT22;10589;53.636;10.012;2022-10-18T15:42:51;14.80;99.90
20858;DHT22;10589;53.636;10.012;2022-10-18T15:58:48;14.60;99.90
20858;DHT22;10589;53.636;10.012;2022-10-18T16:01:19;14.50;99.90
20858;DHT22;10589;53.636;10.012;2022-10-18T16:03:46;14.40;99.90
20858;DHT22;10589;53.636;10.012;2022-10-18T16:06:13;14.50;99.90
20858;DHT22;10589;53.636;10.012;2022-10-18T16:08:46;14.40;99.90
20858;DHT22;10589;53.636;10.012;2022-10-18T16:11:18;14.30;99.90
20858;DHT22;10589;53.636;10.012;2022-10-18T16:13:44;14.30;99.90
20858;DHT22;10589;53.636;10.012;2022-10-18T16:16:16;14.10;99.90
20858;DHT22;10589;53.636;10.012;2022-10-18T16:18:42;14.00;99.90
20858;DHT22;10589;53.636;10.012;2022-10-18T16:21:20;13.90;99.90
20858;DHT22;10589;53.636;10.012;2022-10-18T16:23:47;13.90;99.90
20858;DHT22;10589;53.636;10.012;2022-10-18T16:26:14;13.90;99.90
20858;DHT22;10589;53.636;10.012;2022-10-18T16:28:40;13.90;99.90
20858;DHT22;10589;53.636;10.012;2022-10-18T16:31:06;13.80;99.90
20858;DHT22;10589;53.636;10.012;2022-10-18T16:33:32;13.70;99.90
20858;DHT22;10589;53.636;10.012;2022-10-18T16:35:58;13.60;99.90
20858;DHT22;10589;53.636;10.012;2022-10-18T16:40:52;13.40;99.90
20858;DHT22;10589;53.636;10.012;2022-10-18T16:43:18;13.40;99.90
20858;DHT22;10589;53.636;10.012;2022-10-18T16:45:44;13.30;99.90
20858;DHT22;10589;53.636;10.012;2022-10-18T16:48:14;13.30;99.90
20858;DHT22;10589;53.636;10.012;2022-10-18T16:50:41;13.30;99.90
20858;DHT22;10589;53.636;10.012;2022-10-18T16:53:06;13.30;99.90
20858;DHT22;10589;53.636;10.012;2022-10-18T16:55:32;13.40;99.90
20858;DHT22;10589;53.636;10.012;2022-10-18T16:57:58;13.50;99.90
20858;DHT22;10589;53.636;10.012;2022-10-18T17:00:24;13.40;99.90
20858;DHT22;10589;53.636;10.012;2022-10-18T17:02:50;13.40;99.90
20858;DHT22;10589;53.636;10.012;2022-10-18T17:05:16;13.40;99.90
20858;DHT22;10589;53.636;10.012;2022-10-18T17:07:42;13.40;99.90
20858;DHT22;10589;53.636;10.012;2022-10-18T17:10:11;13.50;99.90
20858;DHT22;10589;53.636;10.012;2022-10-18T17:12:37;13.50;99.90
20858;DHT22;10589;53.636;10.012;2022-10-18T17:15:04;13.70;99.90
20858;DHT22;10589;53.636;10.012;2022-10-18T17:17:29;13.80;99.90
20858;DHT22;10589;53.636;10.012;2022-10-18T17:19:55;13.80;99.90
20858;DHT22;10589;53.636;10.012;2022-10-18T17:22:21;13.80;99.90
20858;DHT22;10589;53.636;10.012;2022-10-18T17:24:46;13.80;99.90
20858;DHT22;10589;53.636;10.012;2022-10-18T17:27:12;13.70;99.90
20858;DHT22;10589;53.636;10.012;2022-10-18T17:29:38;13.70;99.90
20858;DHT22;10589;53.636;10.012;2022-10-18T17:32:05;13.60;99.90
20858;DHT22;10589;53.636;10.012;2022-10-18T17:34:31;13.60;99.90
20858;DHT22;10589;53.636;10.012;2022-10-18T17:36:57;13.60;99.90
20858;DHT22;10589;53.636;10.012;2022-10-18T17:39:22;13.60;99.90
20858;DHT22;10589;53.636;10.012;2022-10-18T17:41:48;13.70;99.90
20858;DHT22;10589;53.636;10.012;2022-10-18T17:44:14;13.70;99.90
20858;DHT22;10589;53.636;10.012;2022-10-18T17:46:40;13.80;99.90
20858;DHT22;10589;53.636;10.012;2022-10-18T17:49:06;13.80;99.90
20858;DHT22;10589;53.636;10.012;2022-10-18T17:51:32;13.70;99.90
20858;DHT22;10589;53.636;10.012;2022-10-18T17:53:58;13.70;99.90
20858;DHT22;10589;53.636;10.012;2022-10-18T17:56:23;13.70;99.90
20858;DHT22;10589;53.636;10.012;2022-10-18T17:58:51;13.70;99.90
20858;DHT22;10589;53.636;10.012;2022-10-18T18:01:21;13.60;99.90
20858;DHT22;10589;53.636;10.012;2022-10-18T18:03:48;13.60;99.90
20858;DHT22;10589;53.636;10.012;2022-10-18T18:06:19;13.60;99.90
20858;DHT22;10589;53.636;10.012;2022-10-18T18:08:46;13.60;99.90
20858;DHT22;10589;53.636;10.012;2022-10-18T18:11:13;13.70;99.90
20858;DHT22;10589;53.636;10.012;2022-10-18T18:13:39;13.60;99.90
20858;DHT22;10589;53.636;10.012;2022-10-18T18:16:20;13.60;99.90
20858;DHT22;10589;53.636;10.012;2022-10-18T18:18:49;13.60;99.90
20858;DHT22;10589;53.636;10.012;2022-10-18T18:21:15;13.60;99.90
20858;DHT22;10589;53.636;10.012;2022-10-18T18:23:40;13.60;99.90
20858;DHT22;10589;53.636;10.012;2022-10-18T18:26:07;13.50;99.90
20858;DHT22;10589;53.636;10.012;2022-10-18T18:28:33;13.70;99.90
20858;DHT22;10589;53.636;10.012;2022-10-18T18:30:59;13.70;99.90
20858;DHT22;10589;53.636;10.012;2022-10-18T18:33:31;13.60;99.90
20858;DHT22;10589;53.636;10.012;2022-10-18T18:35:57;13.50;99.90
20858;DHT22;10589;53.636;10.012;2022-10-18T18:38:23;13.60;99.90
20858;DHT22;10589;53.636;10.012;2022-10-18T18:40:49;13.50;99.90
20858;DHT22;10589;53.636;10.012;2022-10-18T18:43:15;13.60;99.90
20858;DHT22;10589;53.636;10.012;2022-10-18T18:45:40;13.60;99.90
20858;DHT22;10589;53.636;10.012;2022-10-18T18:48:13;13.60;99.90
20858;DHT22;10589;53.636;10.012;2022-10-18T18:50:39;13.50;99.90
20858;DHT22;10589;53.636;10.012;2022-10-18T18:53:04;13.50;99.90
20858;DHT22;10589;53.636;10.012;2022-10-18T18:55:30;13.50;99.90
20858;DHT22;10589;53.636;10.012;2022-10-18T18:57:56;13.60;99.90
20858;DHT22;10589;53.636;10.012;2022-10-18T19:00:22;13.50;99.90
20858;DHT22;10589;53.636;10.012;2022-10-18T19:02:47;13.50;99.90
20858;DHT22;10589;53.636;10.012;2022-10-18T19:05:13;13.40;99.90
20858;DHT22;10589;53.636;10.012;2022-10-18T19:07:38;13.30;99.90
20858;DHT22;10589;53.636;10.012;2022-10-18T19:10:04;13.10;99.90
20858;DHT22;10589;53.636;10.012;2022-10-18T19:12:30;13.00;99.90
20858;DHT22;10589;53.636;10.012;2022-10-18T19:14:55;12.90;99.90
20858;DHT22;10589;53.636;10.012;2022-10-18T19:17:21;13.00;99.90
20858;DHT22;10589;53.636;10.012;2022-10-18T19:19:47;13.00;99.90
20858;DHT22;10589;53.636;10.012;2022-10-18T19:22:13;12.90;99.90
20858;DHT22;10589;53.636;10.012;2022-10-18T19:24:39;12.80;99.90
20858;DHT22;10589;53.636;10.012;2022-10-18T19:27:06;12.80;99.90
20858;DHT22;10589;53.636;10.012;2022-10-18T19:29:38;12.80;99.90
20858;DHT22;10589;53.636;10.012;2022-10-18T19:32:06;12.80;99.90
20858;DHT22;10589;53.636;10.012;2022-10-18T19:34:33;12.80;99.90
20858;DHT22;10589;53.636;10.012;2022-10-18T19:36:59;12.80;99.90
20858;DHT22;10589;53.636;10.012;2022-10-18T19:39:31;13.00;99.90
20858;DHT22;10589;53.636;10.012;2022-10-18T19:41:58;13.00;99.90
20858;DHT22;10589;53.636;10.012;2022-10-18T19:44:29;13.00;99.90
20858;DHT22;10589;53.636;10.012;2022-10-18T19:46:55;13.00;99.90
20858;DHT22;10589;53.636;10.012;2022-10-18T19:49:21;13.00;99.90
20858;DHT22;10589;53.636;10.012;2022-10-18T19:51:47;12.90;99.90
20858;DHT22;10589;53.636;10.012;2022-10-18T19:54:13;13.00;99.90
20858;DHT22;10589;53.636;10.012;2022-10-18T19:56:39;12.90;99.90
20858;DHT22;10589;53.636;10.012;2022-10-18T19:59:09;12.90;99.90
20858;DHT22;10589;53.636;10.012;2022-10-18T20:01:35;12.90;99.90
20858;DHT22;10589;53.636;10.012;2022-10-18T20:04:00;12.90;99.90
20858;DHT22;10589;53.636;10.012;2022-10-18T20:06:29;12.90;99.90
20858;DHT22;10589;53.636;10.012;2022-10-18T20:08:55;12.90;99.90
20858;DHT22;10589;53.636;10.012;2022-10-18T20:11:23;12.90;99.90
20858;DHT22;10589;53.636;10.012;2022-10-18T20:13:49;12.90;99.90
20858;DHT22;10589;53.636;10.012;2022-10-18T20:16:17;12.90;99.90
20858;DHT22;10589;53.636;10.012;2022-10-18T20:18:43;12.90;99.90
20858;DHT22;10589;53.636;10.012;2022-10-18T20:21:14;13.00;99.90
20858;DHT22;10589;53.636;10.012;2022-10-18T20:23:42;12.90;99.90
20858;DHT22;10589;53.636;10.012;2022-10-18T20:26:11;12.90;99.90
20858;DHT22;10589;53.636;10.012;2022-10-18T20:28:37;12.80;99.90
20858;DHT22;10589;53.636;10.012;2022-10-18T20:31:15;12.70;99.90
20858;DHT22;10589;53.636;10.012;2022-10-18T20:33:42;12.80;99.90
20858;DHT22;10589;53.636;10.012;2022-10-18T20:36:10;12.70;99.90
20858;DHT22;10589;53.636;10.012;2022-10-18T20:38:38;12.60;99.90
20858;DHT22;10589;53.636;10.012;2022-10-18T20:41:13;12.60;99.90
20858;DHT22;10589;53.636;10.012;2022-10-18T20:43:39;12.60;99.90
20858;DHT22;10589;53.636;10.012;2022-10-18T20:46:08;12.60;99.90
20858;DHT22;10589;53.636;10.012;2022-10-18T20:48:34;12.50;99.90
20858;DHT22;10589;53.636;10.012;2022-10-18T20:51:08;12.40;99.90
20858;DHT22;10589;53.636;10.012;2022-10-18T20:53:35;12.20;99.90
20858;DHT22;10589;53.636;10.012;2022-10-18T20:58:32;11.90;99.90
20858;DHT22;10589;53.636;10.012;2022-10-18T21:01:13;11.70;99.90
20858;DHT22;10589;53.636;10.012;2022-10-18T21:03:40;11.60;99.90
20858;DHT22;10589;53.636;10.012;2022-10-18T21:06:15;11.50;99.90
20858;DHT22;10589;53.636;10.012;2022-10-18T21:08:41;11.40;99.90
20858;DHT22;10589;53.636;10.012;2022-10-18T21:11:08;11.40;99.90
20858;DHT22;10589;53.636;10.012;2022-10-18T21:13:34;11.30;99.90
20858;DHT22;10589;53.636;10.012;2022-10-18T21:16:00;11.30;99.90
20858;DHT22;10589;53.636;10.012;2022-10-18T21:18:27;11.20;99.90
20858;DHT22;10589;53.636;10.012;2022-10-18T21:20:53;11.30;99.90
20858;DHT22;10589;53.636;10.012;2022-10-18T21:23:19;11.30;99.90
20858;DHT22;10589;53.636;10.012;2022-10-18T21:25:48;11.40;99.90
20858;DHT22;10589;53.636;10.012;2022-10-18T21:28:14;11.50;99.90
20858;DHT22;10589;53.636;10.012;2022-10-18T21:30:40;11.50;99.90
20858;DHT22;10589;53.636;10.012;2022-10-18T21:33:06;11.50;99.90
20858;DHT22;10589;53.636;10.012;2022-10-18T21:35:38;11.40;99.90
20858;DHT22;10589;53.636;10.012;2022-10-18T21:38:05;11.40;99.90
20858;DHT22;10589;53.636;10.012;2022-10-18T21:40:34;11.40;99.90
20858;DHT22;10589;53.636;10.012;2022-10-18T21:42:59;11.40;99.90
20858;DHT22;10589;53.636;10.012;2022-10-18T21:45:25;11.50;99.90
20858;DHT22;10589;53.636;10.012;2022-10-18T21:47:50;11.60;99.90
20858;DHT22;10589;53.636;10.012;2022-10-18T21:50:16;11.70;99.90
20858;DHT22;10589;53.636;10.012;2022-10-18T21:52:41;11.70;99.90
20858;DHT22;10589;53.636;10.012;2022-10-18T21:55:07;11.70;99.90
20858;DHT22;10589;53.636;10.012;2022-10-18T21:57:33;11.80;99.90
20858;DHT22;10589;53.636;10.012;2022-10-18T21:59:59;11.70;99.90